Flight Track Log - Related Links

Times and Time Zones

All times are in EDT time to prevent confusion due to time zone crossing. See the SWA2141 flight status page for this flight to view local times or setup timezone preferences in your user account.

Time Position Orientation Groundspeed Altitude Reporting Facility
EDT Latitude Longitude Course Direction KTS MPH feet Rate Location/Type
Wed 09:31:46 PM 47.5010 -122.3080 359° North 204 235 2,500  Level FlightAware ADS-B
Wed 09:32:13 PM 47.5300 -122.3080 360° North 229 264 3,600 2,516 Climbing FlightAware ADS-B
Wed 09:33:19 PM 47.6030 -122.2920 North 266 306 6,400 2,684 Climbing FlightAware ADS-B
Wed 09:34:07 PM 47.6010 -122.2000 92° East 292 336 8,700 2,824 Climbing FlightAware ADS-B
Wed 09:34:27 PM 47.5880 -122.1650 119° Southeast 298 343 9,600 1,700 Climbing FlightAware ADS-B
Wed 09:35:07 PM 47.5610 -122.0900 118° Southeast 322 371 10,400 1,518 Climbing FlightAware ADS-B
Wed 09:35:50 PM 47.5300 -122.0000 117° Southeast 356 410 11,700 2,096 Climbing FlightAware ADS-B
Wed 09:36:30 PM 47.4980 -121.9120 118° Southeast 369 425 13,300 2,329 Climbing FlightAware ADS-B
Wed 09:37:15 PM 47.4620 -121.8120 118° Southeast 382 440 15,000 2,357 Climbing FlightAware ADS-B
Wed 09:37:54 PM 47.4330 -121.7150 114° Southeast 393 452 16,600 2,357 Climbing FlightAware ADS-B
Wed 09:38:39 PM 47.4280 -121.5970 94° East 402 463 18,300 2,313 Climbing FlightAware ADS-B
Wed 09:39:17 PM 47.4260 -121.4900 92° East 409 471 19,800 2,104 Climbing FlightAware ADS-B
Wed 09:39:56 PM 47.4250 -121.3790 91° East 419 482 21,000 1,899 Climbing FlightAware ADS-B
Wed 09:40:36 PM 47.4230 -121.2620 91° East 429 494 22,300 1,823 Climbing FlightAware ADS-B
Wed 09:41:15 PM 47.4210 -121.1490 91° East 437 503 23,400 1,737 Climbing FlightAware ADS-B
Wed 09:41:52 PM 47.4190 -121.0350 91° East 445 512 24,500 1,556 Climbing FlightAware ADS-B
Wed 09:42:36 PM 47.4160 -120.9000 92° East 455 524 25,500 1,357 Climbing FlightAware ADS-B
Wed 09:43:16 PM 47.4140 -120.7770 91° East 464 534 26,400 1,357 Climbing FlightAware ADS-B
Wed 09:44:00 PM 47.4090 -120.6360 93° East 472 543 27,400 1,357 Climbing FlightAware ADS-B
Wed 09:44:40 PM 47.4040 -120.5080 93° East 477 549 28,300 1,286 Climbing FlightAware ADS-B
Wed 09:45:24 PM 47.3980 -120.3630 93° East 483 556 29,200 1,143 Climbing FlightAware ADS-B
Wed 09:46:04 PM 47.3930 -120.2290 93° East 488 562 29,900 1,071 Climbing FlightAware ADS-B
Wed 09:46:48 PM 47.3870 -120.0830 93° East 494 568 30,700 1,256 Climbing FlightAware ADS-B
Wed 09:47:30 PM 47.3810 -119.9460 94° East 491 565 31,700 1,390 Climbing FlightAware ADS-B
Wed 09:48:10 PM 47.3750 -119.8100 94° East 487 560 32,600 1,286 Climbing FlightAware ADS-B
Wed 09:48:54 PM 47.3690 -119.6630 93° East 486 559 33,500 1,000 Climbing FlightAware ADS-B
Wed 09:49:34 PM 47.3630 -119.5320 94° East 490 564 34,000 805 Climbing FlightAware ADS-B
Wed 09:50:16 PM 47.3560 -119.3910 94° East 494 568 34,600 837 Climbing FlightAware ADS-B
Wed 09:51:00 PM 47.3490 -119.2440 94° East 497 572 35,200 886 Climbing FlightAware ADS-B
Wed 09:51:44 PM 47.3410 -119.0960 95° East 495 570 35,900 929 Climbing FlightAware ADS-B
Wed 09:52:24 PM 47.3340 -118.9660 94° East 492 566 36,500 717 Climbing FlightAware ADS-B
Wed 09:53:16 PM 47.3250 -118.7900 94° East 490 564 37,000 330 Climbing FlightAware ADS-B
Wed 09:53:55 PM 47.3180 -118.6620 95° East 488 562 37,000  Level FlightAware ADS-B
Wed 09:54:36 PM 47.3110 -118.5260 94° East 487 560 37,000  Level FlightAware ADS-B
Wed 09:55:16 PM 47.3030 -118.3950 95° East 485 558 37,000  Level FlightAware ADS-B
Wed 09:55:56 PM 47.2960 -118.2600 94° East 484 557 37,000  Level FlightAware ADS-B
Wed 09:56:36 PM 47.2880 -118.1330 95° East 485 558 37,000  Level FlightAware ADS-B
Wed 09:57:14 PM 47.2810 -118.0050 95° East 484 557 37,000  Level FlightAware ADS-B
Wed 09:58:10 PM 47.2700 -117.8380 95° East 485 558 37,000  Level FlightAware ADS-B
Wed 09:58:48 PM 47.2620 -117.6960 95° East 490 564 37,000  Level FlightAware ADS-B
Wed 09:59:38 PM 47.2530 -117.5550 95° East 490 564 37,000  Level FlightAware ADS-B
Wed 10:00:14 PM 47.2470 -117.4530 95° East 490 564 37,000  Level FlightAware ADS-B
Wed 10:00:50 PM 47.2410 -117.3510 95° East 490 564 37,000  Level FlightAware ADS-B
Wed 10:01:39 PM 47.2330 -117.2130 95° East 490 564 37,000  Level FlightAware ADS-B
Wed 10:02:15 PM 47.2270 -117.1110 95° East 490 564 37,000  Level FlightAware ADS-B
Wed 10:02:51 PM 47.2210 -117.0090 95° East 490 564 37,000  Level FlightAware ADS-B
Wed 10:03:37 PM 47.2130 -116.8790 95° East 490 564 37,000  Level FlightAware ADS-B
Wed 10:04:13 PM 47.2070 -116.7770 95° East 490 564 37,000  Level FlightAware ADS-B
Wed 10:04:49 PM 47.2010 -116.6760 95° East 490 564 37,000  Level FlightAware ADS-B
Wed 10:05:35 PM 47.1930 -116.5460 95° East 490 564 37,000  Level FlightAware ADS-B
Wed 10:06:11 PM 47.1870 -116.4440 95° East 490 564 37,000  Level FlightAware ADS-B
Wed 10:06:59 PM 47.1790 -116.3090 95° East 490 564 37,000  Level FlightAware ADS-B
Wed 10:07:45 PM 47.1710 -116.1790 95° East 490 564 37,000  Level FlightAware ADS-B
Wed 10:08:21 PM 47.1650 -116.0770 95° East 490 564 37,000  Level FlightAware ADS-B
Wed 10:09:12 PM 47.1119 -115.6253 95° East 498 573 37,000  Level Seattle Center
Wed 10:10:13 PM 47.0956 -115.4247 97° East 497 572 37,000  Level Seattle Center
Wed 10:11:14 PM 47.0806 -115.2467 97° East 498 573 37,000  Level Seattle Center
Wed 10:12:15 PM 47.0633 -115.0458 97° East 499 574 37,000  Level Seattle Center
Wed 10:13:16 PM 47.0419 -114.8072 97° East 496 571 37,000  Level Seattle Center
Wed 10:14:17 PM 47.0239 -114.6072 97° East 498 573 37,000  Level Seattle Center
Wed 10:15:18 PM 47.0058 -114.4078 97° East 497 572 37,000  Level Seattle Center
Wed 10:16:19 PM 46.9878 -114.2092 98° East 496 571 37,000  Level Seattle Center
Wed 10:17:21 PM 46.9683 -114.0117 98° East 494 568 37,000  Level Seattle Center
Wed 10:18:21 PM 46.9489 -113.8108 98° East 500 575 37,000  Level Seattle Center
Wed 10:19:22 PM 46.9283 -113.6103 98° East 501 577 37,000  Level Seattle Center
Wed 10:20:52 PM 46.8981 -113.2886 98° East 501 577 37,000  Level Salt Lake Center
Wed 10:21:54 PM 46.8769 -113.0886 99° East 502 578 37,000  Level Salt Lake Center
Wed 10:22:56 PM 46.8561 -112.8958 99° East 501 577 37,000  Level Salt Lake Center
Wed 10:23:58 PM 46.8358 -112.6983 98° East 496 571 37,000  Level Salt Lake Center
Wed 10:24:59 PM 46.8100 -112.4572 99° East 501 577 37,000  Level Salt Lake Center
Wed 10:26:02 PM 46.7869 -112.2583 100° East 501 577 37,000  Level Salt Lake Center
Wed 10:27:03 PM 46.7647 -112.0617 99° East 497 572 37,000  Level Salt Lake Center
Wed 10:28:05 PM 46.7425 -111.8628 99° East 499 574 37,000  Level Salt Lake Center
Wed 10:29:07 PM 46.7200 -111.6658 99° East 497 572 37,000  Level Salt Lake Center
Wed 10:30:08 PM 46.6956 -111.4653 100° East 502 578 37,000  Level Salt Lake Center
Wed 10:31:10 PM 46.6664 -111.2258 100° East 504 580 37,000  Level Salt Lake Center
Wed 10:32:12 PM 46.6425 -111.0278 100° East 502 578 37,000  Level Salt Lake Center
Wed 10:33:14 PM 46.6181 -110.8308 100° East 500 575 37,000  Level Salt Lake Center
Wed 10:34:16 PM 46.5925 -110.6317 101° East 504 580 37,000  Level Salt Lake Center
Wed 10:35:17 PM 46.5717 -110.4353 99° East 500 575 37,000  Level Salt Lake Center
Wed 10:36:19 PM 46.5411 -110.1961 100° East 501 577 37,000  Level Salt Lake Center
Wed 10:37:21 PM 46.5144 -109.9986 101° East 502 578 37,000  Level Salt Lake Center
Wed 10:38:23 PM 46.4869 -109.8017 101° East 501 577 37,000  Level Salt Lake Center
Wed 10:39:25 PM 46.4608 -109.6033 101° East 501 577 37,000  Level Salt Lake Center
Wed 10:40:26 PM 46.4311 -109.4061 102° East 502 578 37,000  Level Salt Lake Center
Wed 10:41:28 PM 46.4033 -109.2078 101° East 503 579 37,000  Level Salt Lake Center
Wed 10:42:30 PM 46.3753 -109.0081 101° East 508 585 37,000  Level Salt Lake Center
Wed 10:43:32 PM 46.3408 -108.7697 102° East 505 581 37,000  Level Salt Lake Center
Wed 10:44:34 PM 46.3119 -108.5703 102° East 508 585 37,000  Level Salt Lake Center
Wed 10:45:35 PM 46.2828 -108.3714 102° East 507 583 37,000  Level Salt Lake Center
Wed 10:46:37 PM 46.2536 -108.1733 102° East 505 581 37,000  Level Salt Lake Center
Wed 10:47:39 PM 46.2225 -107.9753 103° East 506 582 37,000  Level Salt Lake Center
Wed 10:48:41 PM 46.1947 -107.7794 102° East 500 575 37,000  Level Salt Lake Center
Wed 10:49:42 PM 46.1667 -107.5806 101° East 506 582 37,000  Level Salt Lake Center
Wed 10:50:44 PM 46.1314 -107.3408 102° East 509 586 37,000  Level Salt Lake Center
Wed 10:51:46 PM 46.1017 -107.1414 102° East 510 587 37,000  Level Salt Lake Center
Wed 10:52:48 PM 46.0717 -106.9411 102° East 512 589 37,000  Level Salt Lake Center
Wed 10:53:49 PM 46.0408 -106.7381 102° East 516 594 37,000  Level Salt Lake Center
Wed 10:54:51 PM 46.0092 -106.5367 103° East 517 595 37,000  Level Salt Lake Center
Wed 10:55:53 PM 45.9781 -106.3347 102° East 518 596 37,000  Level Salt Lake Center
Wed 10:56:54 PM 45.9461 -106.1339 103° East 517 595 37,000  Level Salt Lake Center
Wed 10:57:56 PM 45.9136 -105.9333 103° East 517 595 37,000  Level Salt Lake Center
Wed 10:58:58 PM 45.8758 -105.6933 103° East 516 594 37,000  Level Salt Lake Center
Wed 10:59:59 PM 45.8456 -105.4944 102° East 514 592 37,000  Level Salt Lake Center
Wed 11:01:01 PM 45.8131 -105.2925 103° East 518 596 37,000  Level Salt Lake Center
Wed 11:02:03 PM 45.7786 -105.0911 104° East 521 600 37,000  Level Salt Lake Center
Wed 11:03:04 PM 45.7442 -104.8886 104° East 523 602 37,000  Level Salt Lake Center
Wed 11:04:06 PM 45.7094 -104.6875 104° East 523 602 37,000  Level Salt Lake Center
Wed 11:05:07 PM 45.6750 -104.4875 104° East 523 602 37,000  Level Salt Lake Center
Wed 11:06:09 PM 45.6392 -104.2861 104° East 524 603 37,000  Level Salt Lake Center
Wed 11:07:11 PM 45.5961 -104.0378 104° East 533 613 37,000  Level Salt Lake Center
Wed 11:09:04 PM 45.5306 -103.6767 104° East 532 612 37,000  Level Minneapolis Center
Wed 11:10:06 PM 45.4939 -103.4756 105° East 531 611 37,000  Level Minneapolis Center
Wed 11:11:17 PM 45.4481 -103.2250 105° East 529 609 37,000  Level Salt Lake Center
Wed 11:12:18 PM 45.4103 -103.0222 105° East 531 611 37,000  Level Salt Lake Center
Wed 11:13:22 PM 45.3692 -102.8086 105° East 532 612 37,000  Level Minneapolis Center
Wed 11:14:24 PM 45.3297 -102.6075 106° East 530 610 37,000  Level Minneapolis Center
Wed 11:15:25 PM 45.2911 -102.4064 105° East 530 610 37,000  Level Minneapolis Center
Wed 11:16:26 PM 45.2428 -102.1617 106° East 535 616 37,000  Level Minneapolis Center
Wed 11:17:28 PM 45.2033 -101.9594 105° East 535 616 37,000  Level Minneapolis Center
Wed 11:18:29 PM 45.1617 -101.7575 106° East 535 616 37,000  Level Minneapolis Center
Wed 11:19:42 PM 45.1208 -101.5544 106° East 537 618 37,000  Level Minneapolis Center
Wed 11:20:44 PM 45.0719 -101.3136 106° East 534 615 37,000  Level Minneapolis Center
Wed 11:21:45 PM 45.0383 -101.1544 107° East 531 611 37,000  Level Minneapolis Center
Wed 11:22:46 PM 44.9914 -100.9161 105° East 528 608 37,000  Level Minneapolis Center
Wed 11:23:48 PM 44.9486 -100.7189 107° East 527 606 37,000  Level Minneapolis Center
Wed 11:24:49 PM 44.9058 -100.5219 107° East 528 608 37,000  Level Minneapolis Center
Wed 11:25:50 PM 44.8542 -100.2856 107° East 531 611 37,000  Level Minneapolis Center
Wed 11:26:52 PM 44.8114 -100.0911 107° East 531 611 37,000  Level Minneapolis Center
Wed 11:27:53 PM 44.7700 -99.8950 106° East 531 611 37,000  Level Minneapolis Center
Wed 11:28:54 PM 44.7267 -99.6972 107° East 533 613 37,000  Level Minneapolis Center
Wed 11:34:51 PM 44.4520 -98.4930 107° East 535 616 37,000  Level FlightAware ADS-B
Wed 11:35:33 PM 44.4280 -98.3520 103° East 533 613 37,000  Level FlightAware ADS-B
Wed 11:36:17 PM 44.4050 -98.2060 102° East 533 613 37,000  Level FlightAware ADS-B
Wed 11:36:59 PM 44.3820 -98.0640 103° East 533 613 37,000  Level FlightAware ADS-B
Wed 11:37:39 PM 44.3600 -97.9280 103° East 532 612 37,000  Level FlightAware ADS-B
Wed 11:38:23 PM 44.3360 -97.7850 103° East 533 613 37,000  Level FlightAware ADS-B
Wed 11:39:03 PM 44.3130 -97.6520 104° East 531 611 37,000  Level FlightAware ADS-B
Wed 11:39:39 PM 44.2930 -97.5280 103° East 530 610 37,000  Level FlightAware ADS-B
Wed 11:40:35 PM 44.2610 -97.3430 104° East 531 611 37,000  Level FlightAware ADS-B
Wed 11:41:14 PM 44.2400 -97.2180 103° East 529 609 37,000  Level FlightAware ADS-B
Wed 11:41:52 PM 44.2180 -97.0900 103° East 529 609 37,000  Level FlightAware ADS-B
Wed 11:42:35 PM 44.1930 -96.9460 104° East 528 608 37,000  Level FlightAware ADS-B
Wed 11:43:17 PM 44.1690 -96.8100 104° East 528 608 37,000  Level FlightAware ADS-B
Wed 11:43:59 PM 44.1440 -96.6680 104° East 528 608 37,000  Level FlightAware ADS-B
Wed 11:44:41 PM 44.1200 -96.5330 104° East 529 609 37,000  Level FlightAware ADS-B
Wed 11:45:25 PM 44.0930 -96.3850 104° East 530 610 37,000  Level FlightAware ADS-B
Wed 11:46:05 PM 44.0700 -96.2530 104° East 530 610 37,000  Level FlightAware ADS-B
Wed 11:46:40 PM 44.0490 -96.1400 104° East 530 610 37,000  Level FlightAware ADS-B
Wed 11:47:21 PM 44.0240 -96.0040 104° East 529 609 37,000  Level FlightAware ADS-B
Wed 11:48:05 PM 43.9970 -95.8570 104° East 527 606 37,000  Level FlightAware ADS-B
Wed 11:48:43 PM 43.9740 -95.7350 105° East 525 604 37,000  Level FlightAware ADS-B
Wed 11:49:29 PM 43.9460 -95.5850 104° East 524 603 37,000  Level FlightAware ADS-B
Wed 11:50:10 PM 43.9210 -95.4530 105° East 524 603 37,000  Level FlightAware ADS-B
Wed 11:50:50 PM 43.8970 -95.3240 104° East 521 600 37,000  Level FlightAware ADS-B
Wed 11:51:34 PM 43.8690 -95.1820 105° East 516 594 37,000  Level FlightAware ADS-B
Wed 11:52:13 PM 43.8460 -95.0620 105° East 513 590 37,000  Level FlightAware ADS-B
Wed 11:52:58 PM 43.8180 -94.9170 105° East 511 588 37,000  Level FlightAware ADS-B
Wed 11:53:38 PM 43.7930 -94.7900 105° East 512 589 37,000  Level FlightAware ADS-B
Wed 11:54:23 PM 43.7650 -94.6500 105° East 510 587 37,000  Level FlightAware ADS-B
Wed 11:55:02 PM 43.7410 -94.5260 105° East 510 587 37,000  Level FlightAware ADS-B
Wed 11:55:46 PM 43.7140 -94.3860 105° East 515 593 37,000  Level FlightAware ADS-B
Wed 11:56:28 PM 43.6870 -94.2530 106° East 517 595 37,000  Level FlightAware ADS-B
Wed 11:57:12 PM 43.6590 -94.1140 106° East 519 597 37,000  Level FlightAware ADS-B
Wed 11:57:52 PM 43.6320 -93.9860 106° East 519 597 37,000  Level FlightAware ADS-B
Wed 11:58:36 PM 43.6040 -93.8480 106° East 520 598 37,000  Level FlightAware ADS-B
Wed 11:59:16 PM 43.5780 -93.7200 106° East 520 598 37,000  Level FlightAware ADS-B
Wed 11:59:54 PM 43.5530 -93.5970 106° East 521 600 37,000  Level FlightAware ADS-B
Thu 12:00:39 AM 43.5230 -93.4560 106° East 520 598 37,000  Level FlightAware ADS-B
Thu 12:01:19 AM 43.4960 -93.3260 106° East 520 598 37,000  Level FlightAware ADS-B
Thu 12:02:05 AM 43.4660 -93.1840 106° East 519 597 37,000  Level FlightAware ADS-B
Thu 12:02:41 AM 43.4410 -93.0670 106° East 518 596 37,000  Level FlightAware ADS-B
Thu 12:03:21 AM 43.4150 -92.9440 106° East 518 596 37,000  Level FlightAware ADS-B
Thu 12:04:05 AM 43.3840 -92.8030 107° East 518 596 37,000  Level FlightAware ADS-B
Thu 12:04:45 AM 43.3570 -92.6770 106° East 517 595 37,000  Level FlightAware ADS-B
Thu 12:05:29 AM 43.3270 -92.5410 107° East 516 594 37,000  Level FlightAware ADS-B
Thu 12:06:09 AM 43.3000 -92.4160 106° East 515 593 37,000  Level FlightAware ADS-B
Thu 12:06:51 AM 43.2710 -92.2830 107° East 514 592 37,000  Level FlightAware ADS-B
Thu 12:07:25 AM 43.2480 -92.1810 107° East 513 590 37,000  Level FlightAware ADS-B
Thu 12:08:08 AM 43.2180 -92.0460 107° East 512 589 37,000  Level FlightAware ADS-B
Thu 12:08:48 AM 43.1900 -91.9210 107° East 512 589 37,000  Level FlightAware ADS-B
Thu 12:09:32 AM 43.1590 -91.7840 107° East 513 590 37,000  Level FlightAware ADS-B
Thu 12:10:14 AM 43.1290 -91.6530 107° East 513 590 37,000  Level FlightAware ADS-B
Thu 12:10:52 AM 43.1030 -91.5380 107° East 513 590 37,000  Level FlightAware ADS-B
Thu 12:11:36 AM 43.0710 -91.4010 108° East 512 589 37,000  Level FlightAware ADS-B
Thu 12:12:16 AM 43.0420 -91.2750 107° East 514 592 37,000  Level FlightAware ADS-B
Thu 12:12:57 AM 43.0140 -91.1530 107° East 515 593 37,000  Level FlightAware ADS-B
Thu 12:13:38 AM 42.9830 -91.0240 108° East 515 593 37,000  Level FlightAware ADS-B
Thu 12:14:14 AM 42.9580 -90.9170 108° East 516 594 37,000  Level FlightAware ADS-B
Thu 12:14:53 AM 42.9290 -90.7920 108° East 517 595 37,000  Level FlightAware ADS-B
Thu 12:15:37 AM 42.8960 -90.6540 108° East 517 595 37,000  Level FlightAware ADS-B
Thu 12:16:17 AM 42.8670 -90.5300 108° East 517 595 37,000  Level FlightAware ADS-B
Thu 12:17:01 AM 42.8340 -90.3960 109° East 515 593 37,000  Level FlightAware ADS-B
Thu 12:17:41 AM 42.8050 -90.2740 108° East 514 592 37,000  Level FlightAware ADS-B
Thu 12:18:25 AM 42.7710 -90.1370 109° East 513 590 37,000  Level FlightAware ADS-B
Thu 12:19:05 AM 42.7420 -90.0160 108° East 511 588 37,000  Level FlightAware ADS-B
Thu 12:19:41 AM 42.7150 -89.9080 109° East 510 587 37,000  Level FlightAware ADS-B
Thu 12:20:21 AM 42.6850 -89.7850 108° East 508 585 37,000  Level FlightAware ADS-B
Thu 12:21:05 AM 42.6520 -89.6530 109° East 504 580 37,000  Level FlightAware ADS-B
Thu 12:21:41 AM 42.6250 -89.5470 109° East 501 577 37,000  Level FlightAware ADS-B
Thu 12:22:23 AM 42.5940 -89.4220 109° East 501 577 37,000  Level FlightAware ADS-B
Thu 12:23:03 AM 42.5640 -89.3020 109° East 502 578 37,000  Level FlightAware ADS-B
Thu 12:23:47 AM 42.5320 -89.1720 108° East 501 577 37,000  Level FlightAware ADS-B
Thu 12:24:29 AM 42.5000 -89.0480 109° East 499 574 37,000  Level FlightAware ADS-B
Thu 12:25:09 AM 42.4700 -88.9310 109° East 498 573 37,000  Level FlightAware ADS-B
Thu 12:25:53 AM 42.4360 -88.8010 109° East 498 573 37,000  Level FlightAware ADS-B
Thu 12:26:33 AM 42.4060 -88.6850 109° East 499 574 37,000  Level FlightAware ADS-B
Thu 12:27:13 AM 42.3750 -88.5650 109° East 498 573 37,000  Level FlightAware ADS-B
Thu 12:27:59 AM 42.3400 -88.4320 110° East 497 572 37,000  Level FlightAware ADS-B
Thu 12:28:39 AM 42.3090 -88.3140 110° East 496 571 37,000  Level FlightAware ADS-B
Thu 12:29:23 AM 42.2750 -88.1860 110° East 494 568 37,000  Level FlightAware ADS-B
Thu 12:30:04 AM 42.2440 -88.0690 110° East 495 570 37,000  Level FlightAware ADS-B
Thu 12:30:48 AM 42.2100 -87.9400 110° East 494 568 37,000  Level FlightAware ADS-B
Thu 12:31:28 AM 42.1790 -87.8260 110° East 493 567 37,000  Level FlightAware ADS-B
Thu 12:32:12 AM 42.1450 -87.6990 110° East 493 567 37,000  Level FlightAware ADS-B
Thu 12:32:52 AM 42.1140 -87.5840 110° East 492 566 37,000  Level FlightAware ADS-B
Thu 12:33:28 AM 42.0850 -87.4800 111° Southeast 491 565 37,000  Level FlightAware ADS-B
Thu 12:34:08 AM 42.0550 -87.3670 110° East 491 565 37,000  Level FlightAware ADS-B
Thu 12:34:51 AM 42.0210 -87.2430 110° East 491 565 37,000  Level FlightAware ADS-B
Thu 12:35:27 AM 41.9920 -87.1400 111° Southeast 490 564 37,000  Level FlightAware ADS-B
Thu 12:36:08 AM 41.9600 -87.0230 110° East 490 564 37,000  Level FlightAware ADS-B
Thu 12:36:50 AM 41.9260 -86.9030 111° Southeast 490 564 37,000  Level FlightAware ADS-B
Thu 12:37:26 AM 41.8970 -86.7980 110° East 490 564 37,000  Level FlightAware ADS-B
Thu 12:38:06 AM 41.8660 -86.6870 111° Southeast 490 564 37,000  Level FlightAware ADS-B
Thu 12:38:50 AM 41.8310 -86.5630 111° Southeast 489 563 37,000  Level FlightAware ADS-B
Thu 12:39:32 AM 41.7970 -86.4420 111° Southeast 489 563 37,000  Level FlightAware ADS-B
Thu 12:40:12 AM 41.7650 -86.3310 111° Southeast 490 564 37,000  Level FlightAware ADS-B
Thu 12:40:57 AM 41.7290 -86.2050 111° Southeast 480 552 37,000  Level FlightAware ADS-B
Thu 12:41:36 AM 41.6980 -86.0970 111° Southeast 478 550 37,000  Level FlightAware ADS-B
Thu 12:42:14 AM 41.6670 -85.9900 111° Southeast 479 551 37,000  Level FlightAware ADS-B
Thu 12:42:53 AM 41.6390 -85.8920 111° Southeast 479 551 37,000  Level FlightAware ADS-B
Thu 12:43:34 AM 41.6050 -85.7770 112° Southeast 479 551 37,000  Level FlightAware ADS-B
Thu 12:44:15 AM 41.5720 -85.6620 111° Southeast 479 551 37,000  Level FlightAware ADS-B
Thu 12:44:57 AM 41.5380 -85.5460 111° Southeast 478 550 37,000  Level FlightAware ADS-B
Thu 12:45:42 AM 41.5020 -85.4240 111° Southeast 480 552 37,000  Level FlightAware ADS-B
Thu 12:46:24 AM 41.4670 -85.3040 111° Southeast 482 555 37,000  Level FlightAware ADS-B
Thu 12:47:08 AM 41.4310 -85.1850 112° Southeast 485 558 37,000  Level FlightAware ADS-B
Thu 12:47:40 AM 41.4040 -85.0940 112° Southeast 485 558 37,000  Level FlightAware ADS-B
Thu 12:48:24 AM 41.3680 -84.9740 112° Southeast 479 551 37,000  Level FlightAware ADS-B
Thu 12:49:03 AM 41.3360 -84.8700 112° Southeast 472 543 37,000  Level FlightAware ADS-B
Thu 12:49:40 AM 41.3070 -84.7740 112° Southeast 474 545 37,000  Level FlightAware ADS-B
Thu 12:50:19 AM 41.2730 -84.6620 112° Southeast 474 545 37,000  Level FlightAware ADS-B
Thu 12:51:05 AM 41.2380 -84.5430 111° Southeast 473 544 37,000  Level FlightAware ADS-B
Thu 12:51:37 AM 41.2130 -84.4540 110° East 473 544 37,000  Level FlightAware ADS-B
Thu 12:52:23 AM 41.1790 -84.3310 110° East 473 544 37,000  Level FlightAware ADS-B
Thu 12:53:02 AM 41.1480 -84.2230 111° Southeast 472 543 37,000  Level FlightAware ADS-B
Thu 12:53:43 AM 41.1160 -84.1110 111° Southeast 471 542 37,000  Level FlightAware ADS-B
Thu 12:54:28 AM 41.0820 -83.9920 111° Southeast 472 543 37,000  Level FlightAware ADS-B
Thu 12:55:06 AM 41.0520 -83.8870 111° Southeast 472 543 37,000  Level FlightAware ADS-B
Thu 12:55:52 AM 41.0160 -83.7630 111° Southeast 473 544 37,000  Level FlightAware ADS-B
Thu 12:56:23 AM 40.9930 -83.6840 111° Southeast 473 544 37,000  Level FlightAware ADS-B
Thu 12:57:07 AM 40.9580 -83.5650 111° Southeast 474 545 37,000  Level FlightAware ADS-B
Thu 12:57:53 AM 40.9220 -83.4410 111° Southeast 473 544 37,000  Level FlightAware ADS-B
Thu 12:58:23 AM 40.8980 -83.3590 111° Southeast 474 545 37,000  Level FlightAware ADS-B
Thu 12:59:08 AM 40.8620 -83.2350 111° Southeast 475 547 37,000  Level FlightAware ADS-B
Thu 12:59:49 AM 40.8290 -83.1230 111° Southeast 476 548 37,000  Level FlightAware ADS-B
Thu 01:00:29 AM 40.7970 -83.0150 111° Southeast 476 548 37,000  Level FlightAware ADS-B
Thu 01:01:13 AM 40.7610 -82.8950 112° Southeast 478 550 37,000  Level FlightAware ADS-B
Thu 01:01:53 AM 40.7280 -82.7860 112° Southeast 479 551 37,000  Level FlightAware ADS-B
Thu 01:02:39 AM 40.6910 -82.6640 112° Southeast 480 552 37,000  Level FlightAware ADS-B
Thu 01:03:15 AM 40.6620 -82.5660 111° Southeast 480 552 37,000  Level FlightAware ADS-B
Thu 01:03:55 AM 40.6280 -82.4570 112° Southeast 479 551 37,000  Level FlightAware ADS-B
Thu 01:04:35 AM 40.5960 -82.3510 112° Southeast 478 550 37,000  Level FlightAware ADS-B
Thu 01:05:15 AM 40.5630 -82.2430 112° Southeast 477 549 37,000  Level FlightAware ADS-B
Thu 01:05:55 AM 40.5290 -82.1320 112° Southeast 476 548 37,000  Level FlightAware ADS-B
Thu 01:06:35 AM 40.4970 -82.0270 112° Southeast 473 544 37,000  Level FlightAware ADS-B
Thu 01:07:15 AM 40.4640 -81.9210 112° Southeast 471 542 37,000  Level FlightAware ADS-B
Thu 01:07:59 AM 40.4290 -81.8090 112° Southeast 470 541 37,000  Level FlightAware ADS-B
Thu 01:08:39 AM 40.3950 -81.6990 112° Southeast 469 540 37,000  Level FlightAware ADS-B
Thu 01:09:25 AM 40.3570 -81.5800 113° Southeast 467 537 37,000  Level FlightAware ADS-B
Thu 01:10:04 AM 40.3250 -81.4750 112° Southeast 469 540 37,000  Level FlightAware ADS-B
Thu 01:10:41 AM 40.3010 -81.3780 108° East 470 541 37,000  Level FlightAware ADS-B
Thu 01:11:23 AM 40.2730 -81.2620 108° East 471 542 37,000  Level FlightAware ADS-B
Thu 01:12:03 AM 40.2470 -81.1530 107° East 471 542 37,000  Level FlightAware ADS-B
Thu 01:12:45 AM 40.2190 -81.0390 108° East 474 545 37,000  Level FlightAware ADS-B
Thu 01:13:29 AM 40.1890 -80.9180 108° East 476 548 37,000  Level FlightAware ADS-B
Thu 01:14:07 AM 40.1640 -80.8140 107° East 478 550 37,000  Level FlightAware ADS-B
Thu 01:14:53 AM 40.1330 -80.6890 108° East 481 554 37,000  Level FlightAware ADS-B
Thu 01:15:25 AM 40.1110 -80.6000 108° East 481 554 37,000  Level FlightAware ADS-B
Thu 01:16:09 AM 40.0800 -80.4790 108° East 483 556 37,000  Level FlightAware ADS-B
Thu 01:16:49 AM 40.0520 -80.3670 108° East 484 557 37,000  Level FlightAware ADS-B
Thu 01:17:27 AM 40.0260 -80.2630 108° East 486 559 37,000  Level FlightAware ADS-B
Thu 01:18:06 AM 39.9980 -80.1540 109° East 487 560 37,000  Level FlightAware ADS-B
Thu 01:18:50 AM 39.9670 -80.0310 108° East 488 562 37,000  Level FlightAware ADS-B
Thu 01:19:31 AM 39.9380 -79.9180 108° East 489 563 37,000  Level FlightAware ADS-B
Thu 01:20:16 AM 39.9060 -79.7910 108° East 489 563 37,000  Level FlightAware ADS-B
Thu 01:20:56 AM 39.8770 -79.6790 109° East 487 560 37,000  Level FlightAware ADS-B
Thu 01:21:40 AM 39.8460 -79.5590 109° East 488 562 37,000  Level FlightAware ADS-B
Thu 01:22:16 AM 39.8200 -79.4580 109° East 487 560 37,000  Level FlightAware ADS-B
Thu 01:22:56 AM 39.7900 -79.3470 109° East 487 560 37,000 -750 Level FlightAware ADS-B
Thu 01:23:36 AM 39.7610 -79.2370 109° East 481 554 36,000 -2,122 Descending FlightAware ADS-B
Thu 01:24:18 AM 39.7320 -79.1240 108° East 486 559 34,100 -2,846 Descending FlightAware ADS-B
Thu 01:24:54 AM 39.7050 -79.0240 109° East 489 563 32,300 -2,692 Descending FlightAware ADS-B
Thu 01:25:36 AM 39.6740 -78.9080 109° East 480 552 30,600 -2,308 Descending FlightAware ADS-B
Thu 01:26:12 AM 39.6490 -78.8120 109° East 469 540 29,300 -2,231 Descending FlightAware ADS-B
Thu 01:26:54 AM 39.6190 -78.7010 109° East 457 526 27,700 -2,241 Descending FlightAware ADS-B
Thu 01:27:35 AM 39.5910 -78.5980 109° East 444 511 26,200 -2,154 Descending FlightAware ADS-B
Thu 01:28:12 AM 39.5670 -78.5090 109° East 433 498 24,900 -2,118 Descending FlightAware ADS-B
Thu 01:29:00 AM 39.5360 -78.3940 109° East 420 483 23,200 -2,114 Descending FlightAware ADS-B
Thu 01:29:40 AM 39.5100 -78.3010 110° East 410 472 21,800 -2,071 Descending FlightAware ADS-B
Thu 01:30:24 AM 39.4820 -78.1950 109° East 400 460 20,300 -1,976 Descending FlightAware ADS-B
Thu 01:31:02 AM 39.4600 -78.1180 110° East 391 450 19,100 -1,974 Descending FlightAware ADS-B
Thu 01:31:40 AM 39.4350 -78.0290 110° East 382 440 17,800 -2,025 Descending FlightAware ADS-B
Thu 01:32:22 AM 39.4120 -77.9420 109° East 373 429 16,400 -1,870 Descending FlightAware ADS-B
Thu 01:32:57 AM 39.3950 -77.8670 106° East 363 418 15,400 -1,537 Descending FlightAware ADS-B
Thu 01:33:44 AM 39.3800 -77.7930 105° East 356 410 14,300 -1,568 Descending FlightAware ADS-B
Thu 01:34:25 AM 39.3610 -77.7050 106° East 348 400 13,100 -1,714 Descending FlightAware ADS-B
Thu 01:35:08 AM 39.3440 -77.6240 105° East 340 391 11,900 -1,535 Descending FlightAware ADS-B
Thu 01:35:51 AM 39.3250 -77.5360 106° East 324 373 10,900 -1,200 Descending FlightAware ADS-B
Thu 01:36:28 AM 39.3120 -77.4750 105° East 312 359 10,300 -1,120 Descending FlightAware ADS-B
Thu 01:39:00 AM 39.2413 -77.0533 78° East  Level Estimated
Thu 01:39:20 AM 39.2450 -77.1710 78° East 289 333 7,000  Level FlightAware ADS-B
Thu 01:39:50 AM 39.2350 -77.1210 104° East 290 334 6,200 -1,556 Descending FlightAware ADS-B
Thu 01:40:14 AM 39.2260 -77.0810 106° East 294 338 5,600 -1,444 Descending FlightAware ADS-B
Thu 01:40:44 AM 39.2160 -77.0350 106° East 289 333 4,900 -1,138 Descending FlightAware ADS-B
Thu 01:42:10 AM 39.1880 -76.9080 106° East 211 243 3,400 -973 Descending FlightAware ADS-B
Thu 01:42:35 AM 39.1830 -76.8780 102° East 190 219 3,100 -1,019 Descending FlightAware ADS-B
Thu 01:43:03 AM 39.1820 -76.8450 92° East 177 204 2,500 -1,138 Descending FlightAware ADS-B
Thu 01:43:33 AM 39.1810 -76.8140 92° East 164 189 2,000 -1,000 Descending FlightAware ADS-B
Thu 01:46:00 AM 39.1667 -76.6667 142° Southeast  Level FlightAware Approximate
Thu 01:47:00 AM 39.1754 -76.6683 142° Southeast  Level Estimated
Thu 01:48:00 AM 39.1754 -76.6683 142° Southeast  Level Estimated
Thu 01:49:00 AM 39.1754 -76.6683 142° Southeast  Level Estimated
Thu 01:50:00 AM 39.1754 -76.6683 142° Southeast  Level Estimated
Thu 01:51:00 AM 39.1754 -76.6683 142° Southeast  Level Estimated
Thu 01:52:00 AM 39.1754 -76.6683 142° Southeast  Level Estimated
Thu 01:53:00 AM 39.1754 -76.6683 142° Southeast  Level Estimated
Thu 01:54:00 AM 39.1754 -76.6683 142° Southeast  Level Estimated
Thu 01:55:00 AM 39.1754 -76.6683 142° Southeast  Level Estimated
Thu 01:56:00 AM 39.1754 -76.6683 142° Southeast  Level Estimated
Thu 01:57:00 AM 39.1754 -76.6683 142° Southeast  Level Estimated
Thu 01:58:00 AM 39.1754 -76.6683 142° Southeast  Level Estimated
Thu 01:59:00 AM 39.1754 -76.6683 142° Southeast  Level Estimated
Thu 02:00:00 AM 39.1754 -76.6683 142° Southeast  Level Estimated
Thu 02:01:00 AM 39.1754 -76.6683 142° Southeast  Level Estimated
Thu 02:02:00 AM 39.1754 -76.6683 142° Southeast  Level Estimated
Thu 02:03:00 AM 39.1754 -76.6683 142° Southeast  Level Estimated
Thu 02:04:00 AM 39.1754 -76.6683 142° Southeast  Level Estimated
Thu 02:05:00 AM 39.1754 -76.6683 142° Southeast  Level Estimated

Login

Don't have an account? Register now (free) for customized features, flight alerts, and more!